createdAt,value
2022-10-20T00:03:45.979Z,31.55
2022-10-20T00:07:47.695Z,28.40
2022-10-20T00:11:49.324Z,31.98
2022-10-20T00:15:52.254Z,31.20
2022-10-20T00:23:56.217Z,29.48
2022-10-20T00:27:57.889Z,30.30
2022-10-20T00:31:59.457Z,28.27
2022-10-20T00:36:02.739Z,30.63
2022-10-20T00:40:04.671Z,28.60
2022-10-20T00:44:43.647Z,30.23
2022-10-20T00:48:48.909Z,29.70
2022-10-20T00:52:53.352Z,31.40
2022-10-20T00:56:58.580Z,30.42
2022-10-20T01:01:00.339Z,28.20
2022-10-20T01:05:02.262Z,30.25
2022-10-20T01:09:04.998Z,30.00
2022-10-20T01:13:23.253Z,33.03
2022-10-20T01:17:42.598Z,27.38
2022-10-20T01:22:10.127Z,39.95
2022-10-20T01:26:33.140Z,27.77
2022-10-20T01:30:44.616Z,26.00
2022-10-20T01:34:52.199Z,25.25
2022-10-20T01:39:20.524Z,26.42
2022-10-20T01:43:25.235Z,32.60
2022-10-20T01:47:28.641Z,38.00
2022-10-20T01:51:30.433Z,32.80
2022-10-20T01:55:33.164Z,28.55
2022-10-20T01:59:55.881Z,26.35
2022-10-20T02:04:01.473Z,30.50
2022-10-20T02:08:44.695Z,30.20
2022-10-20T02:12:52.239Z,28.70
2022-10-20T02:17:02.523Z,26.75
2022-10-20T02:21:05.920Z,23.70
2022-10-20T02:25:12.078Z,27.10
2022-10-20T02:29:17.380Z,34.25
2022-10-20T02:33:20.672Z,25.13
2022-10-20T02:37:22.263Z,26.52
2022-10-20T02:41:23.899Z,26.98
2022-10-20T02:45:25.536Z,22.67
2022-10-20T02:49:27.457Z,22.35
2022-10-20T02:53:29.026Z,22.27
2022-10-20T02:57:30.985Z,21.50
2022-10-20T03:01:32.591Z,26.33
2022-10-20T03:05:39.195Z,25.42
2022-10-20T03:09:40.815Z,27.00
2022-10-20T03:13:42.557Z,22.13
2022-10-20T03:17:44.297Z,25.10
2022-10-20T03:21:46.834Z,26.30
2022-10-20T03:25:48.752Z,20.90
2022-10-20T03:29:50.358Z,22.17
2022-10-20T03:33:51.935Z,24.67
2022-10-20T03:37:53.529Z,24.10
2022-10-20T03:41:55.277Z,22.27
2022-10-20T03:46:09.613Z,24.20
2022-10-20T03:50:11.175Z,26.15
2022-10-20T03:54:12.760Z,22.38
2022-10-20T03:58:14.303Z,24.83
2022-10-20T04:02:30.024Z,22.70
2022-10-20T04:06:32.779Z,26.58
2022-10-20T04:10:34.533Z,25.88
2022-10-20T04:14:36.177Z,20.45
2022-10-20T04:18:38.648Z,22.25
2022-10-20T04:22:40.660Z,23.88
2022-10-20T04:26:42.277Z,20.48
2022-10-20T04:30:44.613Z,23.27
2022-10-20T04:34:46.326Z,20.55
2022-10-20T04:38:47.875Z,18.83
2022-10-20T04:42:49.428Z,21.33
2022-10-20T04:46:51.006Z,21.90
2022-10-20T04:51:07.429Z,24.13
2022-10-20T04:55:09.326Z,20.58
2022-10-20T04:59:13.501Z,22.73
2022-10-20T05:03:15.568Z,27.83
2022-10-20T05:07:17.266Z,22.10
2022-10-20T05:11:21.113Z,25.85
2022-10-20T05:15:22.721Z,23.13
2022-10-20T05:19:24.451Z,22.70
2022-10-20T05:23:26.139Z,23.30
2022-10-20T05:27:28.589Z,19.95
2022-10-20T05:31:30.150Z,26.50
2022-10-20T05:35:31.961Z,24.45
2022-10-20T05:39:33.574Z,23.40
2022-10-20T05:43:35.178Z,27.52
2022-10-20T05:47:36.795Z,32.58
2022-10-20T05:51:38.337Z,23.25
2022-10-20T05:55:39.843Z,27.52
2022-10-20T05:59:41.572Z,30.10
2022-10-20T06:03:47.789Z,25.88
2022-10-20T06:07:49.492Z,29.05
2022-10-20T06:11:52.068Z,31.95
2022-10-20T06:15:53.595Z,24.67
2022-10-20T06:19:55.185Z,26.25
2022-10-20T06:24:01.538Z,26.23
2022-10-20T06:28:03.238Z,23.88
2022-10-20T06:32:05.280Z,23.00
2022-10-20T06:36:07.578Z,25.43
2022-10-20T06:40:09.719Z,23.63
2022-10-20T06:44:12.258Z,31.30
2022-10-20T06:48:14.047Z,26.40
2022-10-20T06:52:15.597Z,25.52
2022-10-20T06:56:25.686Z,26.52
2022-10-20T07:00:27.378Z,35.63
2022-10-20T07:04:28.936Z,21.85
2022-10-20T07:08:33.293Z,26.45
2022-10-20T07:12:35.336Z,27.40
2022-10-20T07:16:37.280Z,23.93
2022-10-20T07:20:38.804Z,22.55
2022-10-20T07:24:43.441Z,32.08
2022-10-20T07:28:55.818Z,22.02
2022-10-20T07:32:57.844Z,22.90
2022-10-20T07:36:59.476Z,24.33
2022-10-20T07:41:02.831Z,22.90
2022-10-20T07:45:04.963Z,21.00
2022-10-20T07:53:28.277Z,24.77
2022-10-20T07:57:29.989Z,26.50
2022-10-20T08:01:32.107Z,23.27
2022-10-20T08:05:33.733Z,25.83
2022-10-20T08:09:35.467Z,22.50
2022-10-20T08:13:38.224Z,23.63
2022-10-20T08:17:39.789Z,26.67
2022-10-20T08:21:41.436Z,21.40
2022-10-20T08:25:42.990Z,30.38
2022-10-20T08:29:50.864Z,23.58
2022-10-20T08:34:07.142Z,24.60
2022-10-20T08:38:08.710Z,27.45
2022-10-20T08:42:10.959Z,18.20
2022-10-20T08:50:44.757Z,21.08
2022-10-20T08:54:51.472Z,22.58
2022-10-20T08:58:53.317Z,20.65
2022-10-20T09:02:56.136Z,22.98
2022-10-20T09:07:01.206Z,29.63
2022-10-20T09:11:04.536Z,20.95
2022-10-20T09:15:08.484Z,21.30
2022-10-20T09:19:18.155Z,21.95
2022-10-20T09:23:40.527Z,21.92
2022-10-20T09:31:49.850Z,20.65
2022-10-20T09:35:52.338Z,20.90
2022-10-20T09:39:58.254Z,18.50
2022-10-20T09:44:08.186Z,23.10
2022-10-20T09:48:25.699Z,26.23
2022-10-20T09:52:34.775Z,18.50
2022-10-20T09:56:39.160Z,18.85
2022-10-20T10:00:47.619Z,21.90
2022-10-20T10:04:52.074Z,16.08
2022-10-20T10:08:54.058Z,13.80
2022-10-20T10:13:00.991Z,15.50
2022-10-20T10:17:02.728Z,21.38
2022-10-20T10:21:08.400Z,17.90
2022-10-20T10:25:25.252Z,16.75
2022-10-20T10:29:37.395Z,15.88
2022-10-20T10:33:42.410Z,16.15
2022-10-20T10:37:46.230Z,15.90
2022-10-20T10:42:13.739Z,15.98
2022-10-20T10:46:20.142Z,14.88
2022-10-20T10:51:02.415Z,17.23
2022-10-20T10:55:30.571Z,19.15
2022-10-20T11:04:05.547Z,16.15
2022-10-20T11:08:30.833Z,16.85
2022-10-20T11:12:50.179Z,16.50
2022-10-20T11:17:00.699Z,15.60
2022-10-20T11:21:29.170Z,18.27
2022-10-20T11:25:51.554Z,15.75
2022-10-20T11:29:55.087Z,15.18
2022-10-20T11:34:14.535Z,15.30
2022-10-20T11:38:43.687Z,14.43
2022-10-20T11:43:17.373Z,15.48
2022-10-20T11:47:36.209Z,12.18
2022-10-20T11:52:03.009Z,17.73
2022-10-20T11:56:22.002Z,15.15
2022-10-20T12:00:54.095Z,16.85
2022-10-20T12:05:35.114Z,12.93
2022-10-20T12:09:56.117Z,12.38
2022-10-20T12:14:15.690Z,16.00
2022-10-20T12:18:31.025Z,14.32
2022-10-20T12:22:41.060Z,15.32
2022-10-20T12:27:02.622Z,17.15
2022-10-20T12:31:06.066Z,13.30
2022-10-20T12:35:11.495Z,16.52
2022-10-20T12:39:14.416Z,17.92
2022-10-20T12:43:36.246Z,18.10
2022-10-20T12:47:38.160Z,18.48
2022-10-20T12:51:50.439Z,17.23
2022-10-20T12:55:59.892Z,25.40
2022-10-20T13:00:07.608Z,15.63
2022-10-20T13:04:47.601Z,21.52
2022-10-20T13:09:18.075Z,18.58
2022-10-20T13:13:21.656Z,20.60
2022-10-20T13:17:38.016Z,20.80
2022-10-20T13:21:45.040Z,16.00
2022-10-20T13:25:55.313Z,21.48
2022-10-20T13:29:58.845Z,18.33
2022-10-20T13:34:21.839Z,16.50
2022-10-20T13:38:44.700Z,18.13
2022-10-20T13:43:04.652Z,16.30
2022-10-20T13:47:13.608Z,16.80
2022-10-20T13:51:25.711Z,17.75
2022-10-20T13:55:30.597Z,20.37
2022-10-20T13:59:32.224Z,17.27
2022-10-20T14:03:45.384Z,19.58
2022-10-20T14:07:47.133Z,17.65
2022-10-20T14:12:04.192Z,20.52
2022-10-20T14:16:09.420Z,16.80
2022-10-20T14:20:21.757Z,19.70
2022-10-20T14:24:36.379Z,19.35
2022-10-20T14:28:39.466Z,20.80
2022-10-20T14:32:41.719Z,21.88
2022-10-20T14:36:46.095Z,21.00
2022-10-20T14:40:55.058Z,24.27
2022-10-20T14:44:58.085Z,23.05
2022-10-20T14:49:00.571Z,27.65
2022-10-20T14:53:38.788Z,30.38
2022-10-20T14:57:44.552Z,21.45
2022-10-20T15:02:12.632Z,22.05
2022-10-20T15:06:18.288Z,27.13
2022-10-20T15:10:25.973Z,23.73
2022-10-20T15:14:27.817Z,25.27
2022-10-20T15:18:29.840Z,31.67
2022-10-20T15:22:31.700Z,25.73
2022-10-20T15:26:33.347Z,31.50
2022-10-20T15:30:35.217Z,26.20
2022-10-20T15:34:40.045Z,46.08
2022-10-20T15:38:44.709Z,37.90
2022-10-20T15:42:46.486Z,31.13
2022-10-20T15:46:50.715Z,34.95
2022-10-20T15:50:56.595Z,27.52
2022-10-20T15:59:08.847Z,27.23
2022-10-20T16:03:17.641Z,27.80
2022-10-20T16:07:19.266Z,27.17
2022-10-20T16:11:22.867Z,27.60
2022-10-20T16:15:28.866Z,26.13
2022-10-20T16:19:32.877Z,28.52
2022-10-20T16:23:40.571Z,31.45
2022-10-20T16:27:44.138Z,34.05
2022-10-20T16:31:47.777Z,31.40
2022-10-20T16:35:49.375Z,29.52
2022-10-20T16:39:51.206Z,27.00
2022-10-20T16:43:55.146Z,44.75
2022-10-20T16:47:58.030Z,42.58
2022-10-20T16:52:03.155Z,36.38
2022-10-20T16:56:05.472Z,30.73
2022-10-20T17:00:09.398Z,37.33
2022-10-20T17:04:12.214Z,32.40
2022-10-20T17:08:14.148Z,33.47
2022-10-20T17:12:15.778Z,30.10
2022-10-20T17:16:26.146Z,34.53
2022-10-20T17:20:30.398Z,34.47
2022-10-20T17:24:32.233Z,33.42
2022-10-20T17:28:35.807Z,39.25
2022-10-20T17:32:37.825Z,32.88
2022-10-20T17:36:39.565Z,35.00
2022-10-20T17:40:42.442Z,37.30
2022-10-20T17:44:44.147Z,58.13
2022-10-20T17:48:46.244Z,38.42
2022-10-20T17:52:48.028Z,39.53
2022-10-20T17:56:52.470Z,34.83
2022-10-20T18:00:56.901Z,36.55
2022-10-20T18:04:59.628Z,33.00
2022-10-20T18:09:07.679Z,35.80
2022-10-20T18:13:09.368Z,39.20
2022-10-20T18:17:11.170Z,38.85
2022-10-20T18:21:14.568Z,35.85
2022-10-20T18:25:16.300Z,38.05
2022-10-20T18:29:18.022Z,35.10
2022-10-20T18:33:19.748Z,36.33
2022-10-20T18:37:21.491Z,35.92
2022-10-20T18:41:26.355Z,43.90
2022-10-20T18:45:28.104Z,37.67
2022-10-20T18:49:29.745Z,33.45
2022-10-20T18:53:32.395Z,30.88
2022-10-20T18:57:39.907Z,36.50
2022-10-20T19:01:41.946Z,38.90
2022-10-20T19:05:43.602Z,36.45
2022-10-20T19:09:45.226Z,36.35
2022-10-20T19:13:47.302Z,37.25
2022-10-20T19:17:48.896Z,49.67
2022-10-20T19:21:50.550Z,41.00
2022-10-20T19:26:13.431Z,68.82
2022-10-20T19:30:15.406Z,60.90
2022-10-20T19:34:26.495Z,50.45
2022-10-20T19:38:28.188Z,55.75
2022-10-20T19:42:29.808Z,52.60
2022-10-20T19:46:33.367Z,60.10
2022-10-20T19:50:36.323Z,60.45
2022-10-20T19:54:38.015Z,58.45
2022-10-20T19:58:44.166Z,51.25
2022-10-20T20:02:48.732Z,53.08
2022-10-20T20:06:51.029Z,51.13
2022-10-20T20:10:54.457Z,53.67
2022-10-20T20:14:56.344Z,51.60
2022-10-20T20:18:58.088Z,46.45
2022-10-20T20:22:59.681Z,43.30
2022-10-20T20:27:01.432Z,53.70
2022-10-20T20:31:09.798Z,48.58
2022-10-20T20:35:11.777Z,52.00
2022-10-20T20:39:14.774Z,51.92
2022-10-20T20:43:16.839Z,51.55
2022-10-20T20:47:18.400Z,43.50
2022-10-20T20:51:25.258Z,52.03
2022-10-20T20:55:26.985Z,50.33
2022-10-20T20:59:28.927Z,45.53
2022-10-20T21:03:31.667Z,49.58
2022-10-20T21:07:33.292Z,53.00
2022-10-20T21:11:35.234Z,58.30
2022-10-20T21:15:36.960Z,53.30
2022-10-20T21:19:38.673Z,52.97
2022-10-20T21:23:40.951Z,61.63
2022-10-20T21:27:42.657Z,62.15
2022-10-20T21:31:44.339Z,65.15
2022-10-20T21:35:45.916Z,51.70
2022-10-20T21:39:47.577Z,50.28
2022-10-20T21:43:51.933Z,51.88
2022-10-20T21:47:56.614Z,62.60
2022-10-20T21:51:58.303Z,43.05
2022-10-20T21:55:59.831Z,50.85
2022-10-20T22:00:01.377Z,65.35
2022-10-20T22:04:05.283Z,50.85
2022-10-20T22:08:06.973Z,47.85
2022-10-20T22:12:08.539Z,49.28
2022-10-20T22:16:13.374Z,40.47
2022-10-20T22:20:15.020Z,48.38
2022-10-20T22:24:18.678Z,43.90
2022-10-20T22:28:24.859Z,39.97
2022-10-20T22:32:26.397Z,39.22
2022-10-20T22:36:29.020Z,40.63
2022-10-20T22:40:30.609Z,40.17
2022-10-20T22:44:32.185Z,39.75
2022-10-20T22:48:34.590Z,36.22
2022-10-20T22:52:36.557Z,39.45
2022-10-20T22:56:38.415Z,41.07
2022-10-20T23:00:42.018Z,42.57
2022-10-20T23:08:48.008Z,39.35
2022-10-20T23:12:49.603Z,36.90
2022-10-20T23:16:51.137Z,41.38
2022-10-20T23:20:54.796Z,39.38
2022-10-20T23:24:59.027Z,42.38
2022-10-20T23:29:00.655Z,45.05
2022-10-20T23:33:02.603Z,52.15
2022-10-20T23:37:04.806Z,48.58
2022-10-20T23:41:06.985Z,44.43
2022-10-20T23:45:10.066Z,47.83
2022-10-20T23:49:11.724Z,39.88
2022-10-20T23:53:13.352Z,40.28
2022-10-20T23:57:14.920Z,44.83
